Time;durP1;ratioP1;P1;durP2;ratioP2;P2;SDS_P1;SDS_P2;PMS_P1;PMS_P2;Temp;Humidity;BMP_temperature;BMP_pressure;BME280_temperature;BME280_humidity;BME280_pressure;Samples;Min_cycle;Max_cycle;Signal;HPM_P1;HPM_P2
2022/03/21 00:00:13;;;;;;;3.95;2.90;;;-0.40;1.40;;;0.45;90.31;96664.27;647642;216;31906;-76
2022/03/21 00:02:55;;;;;;;3.87;2.30;;;-0.30;1.40;;;0.40;90.80;96669.02;646438;212;31685;-75
2022/03/21 00:05:40;;;;;;;2.50;2.10;;;-0.30;1.40;;;0.34;89.55;96672.55;649541;216;31610;-75
2022/03/21 00:08:24;;;;;;;2.40;2.00;;;-0.30;1.40;;;0.27;90.81;96673.31;651297;212;31606;-76
2022/03/21 00:11:06;;;;;;;3.03;2.60;;;-0.40;1.40;;;0.26;92.14;96673.98;650169;216;31559;-76
2022/03/21 00:13:53;;;;;;;3.87;1.90;;;-0.50;1.40;;;0.26;89.31;96678.08;646018;216;42194;-76
2022/03/21 00:16:31;;;;;;;6.07;2.42;;;-0.50;1.40;;;0.19;91.90;96676.32;648870;212;32174;-76
2022/03/21 00:19:13;;;;;;;3.22;2.70;;;-0.60;1.40;;;0.29;93.12;96671.99;647007;212;31628;-76
2022/03/21 00:21:55;;;;;;;4.60;2.00;;;-0.60;1.40;;;0.02;97.48;96676.13;652434;212;31560;-76
2022/03/21 00:24:38;;;;;;;4.30;2.58;;;-0.80;1.40;;;-0.21;100.00;96681.23;650710;212;31664;-76
2022/03/21 00:27:20;;;;;;;3.15;2.15;;;-1.00;1.40;;;-0.41;100.00;96681.53;647176;216;31621;-76
2022/03/21 00:30:01;;;;;;;3.83;2.75;;;-1.20;1.40;;;-0.43;97.50;96681.17;649068;216;31589;-75
2022/03/21 00:32:46;;;;;;;2.80;2.60;;;-1.30;1.40;;;-0.48;97.95;96684.28;618599;222;32475;-76
2022/03/21 00:35:51;;;;;;;2.75;2.12;;;-1.20;1.40;;;-0.47;100.00;96684.61;623535;226;31878;-76
2022/03/21 00:38:35;;;;;;;3.90;1.95;;;-1.10;1.40;;;-0.39;100.00;96687.95;645312;212;31597;-76
2022/03/21 00:41:15;;;;;;;3.28;2.80;;;-0.90;1.40;;;-0.29;100.00;96678.37;645609;212;31544;-76
2022/03/21 00:44:00;;;;;;;2.53;2.33;;;-0.90;1.40;;;-0.10;100.00;96673.88;620858;222;31873;-77
2022/03/21 00:46:42;;;;;;;3.95;2.40;;;-0.80;1.40;;;-0.04;100.00;96667.39;648813;212;31555;-76
2022/03/21 00:49:24;;;;;;;4.32;1.95;;;-0.80;1.40;;;-0.05;100.00;96671.04;647129;212;31589;-75
2022/03/21 00:52:07;;;;;;;4.00;2.28;;;-0.80;1.40;;;-0.17;100.00;96672.42;626193;222;32481;-76
2022/03/21 00:54:49;;;;;;;5.30;2.17;;;-0.80;1.40;;;-0.27;100.00;96671.62;647101;216;31658;-76
2022/03/21 00:57:32;;;;;;;2.58;2.10;;;-0.90;1.40;;;-0.37;100.00;96672.09;646712;214;31705;-76
2022/03/21 01:00:19;;;;;;;3.93;1.83;;;-1.00;1.40;;;-0.40;100.00;96673.12;647642;216;31586;-75
2022/03/21 01:03:01;;;;;;;3.03;2.12;;;-1.10;1.40;;;-0.47;99.76;96672.52;618173;222;31921;-76
2022/03/21 01:05:43;;;;;;;3.65;2.72;;;-1.10;1.40;;;-0.39;100.00;96669.16;649873;212;31576;-75
2022/03/21 01:08:26;;;;;;;2.83;2.35;;;-1.10;1.40;;;-0.21;100.00;96678.35;636501;216;31725;-76
2022/03/21 01:11:08;;;;;;;2.95;2.50;;;-0.90;1.40;;;-0.32;100.00;96679.49;648330;212;31607;-76
2022/03/21 01:13:50;;;;;;;1.70;1.33;;;-1.00;1.40;;;-0.33;100.00;96681.25;648448;216;31589;-76
2022/03/21 01:16:35;;;;;;;2.45;2.00;;;-1.00;1.40;;;-0.47;100.00;96685.56;649481;213;31926;-75
2022/03/21 01:19:16;;;;;;;2.20;1.48;;;-1.30;1.40;;;-0.50;100.00;96682.44;648332;216;31561;-76
2022/03/21 01:21:59;;;;;;;3.20;2.90;;;-1.40;1.40;;;-0.56;100.00;96681.97;650870;212;31534;-74
2022/03/21 01:24:41;;;;;;;2.67;1.80;;;-1.40;1.40;;;-0.66;100.00;96684.66;650607;216;31547;-75
2022/03/21 01:27:29;;;;;;;1.90;1.70;;;-1.50;1.40;;;-0.78;100.00;96684.06;621655;222;32131;-76
2022/03/21 01:30:16;;;;;;;3.40;2.35;;;-1.60;1.40;;;-0.84;100.00;96687.09;644642;216;31534;-76
2022/03/21 01:32:57;;;;;;;3.33;2.20;;;-1.60;1.40;;;-0.88;100.00;96691.16;652193;212;31495;-76
2022/03/21 01:35:52;;;;;;;2.50;2.10;;;-1.70;1.40;;;-0.95;100.00;96680.33;620072;222;32023;-76
2022/03/21 01:38:35;;;;;;;2.42;1.67;;;-1.70;1.40;;;-1.03;100.00;96678.47;649722;216;31681;-76
2022/03/21 01:41:17;;;;;;;2.90;2.03;;;-1.90;1.40;;;-1.07;100.00;96681.85;648727;212;31667;-76
2022/03/21 01:44:03;;;;;;;3.85;1.98;;;-2.00;1.40;;;-1.12;100.00;96678.75;645205;212;31632;-76
2022/03/21 01:46:45;;;;;;;4.70;1.70;;;-2.00;1.40;;;-1.17;100.00;96680.95;647544;212;31586;-76
2022/03/21 01:49:28;;;;;;;1.80;1.70;;;-1.90;1.40;;;-1.16;100.00;96684.87;621802;226;31902;-76
2022/03/21 01:52:09;;;;;;;3.08;2.40;;;-1.90;1.40;;;-1.12;100.00;96680.03;649766;212;31684;-76
2022/03/21 01:57:38;;;;;;;2.30;2.10;;;-1.80;1.40;;;-1.23;100.00;96682.66;651865;212;32748;-76
2022/03/21 02:00:21;;;;;;;2.62;2.42;;;-2.00;1.40;;;-1.14;100.00;96686.22;646973;216;31630;-75
2022/03/21 02:03:06;;;;;;;1.77;1.35;;;-1.80;1.40;;;-1.13;100.00;96689.31;648822;216;31572;-76
2022/03/21 02:05:54;;;;;;;4.00;2.10;;;-1.90;1.40;;;-1.16;100.00;96685.00;651550;216;31605;-75
2022/03/21 02:08:38;;;;;;;3.10;1.30;;;-1.90;1.40;;;-1.21;100.00;96685.57;646348;213;31599;-77
2022/03/21 02:11:20;;;;;;;2.75;1.37;;;-2.00;1.40;;;-1.26;100.00;96694.19;646749;212;33092;-76
2022/03/21 02:14:02;;;;;;;1.70;1.35;;;-2.00;1.40;;;-1.25;100.00;96689.20;647329;216;31695;-76
2022/03/21 02:16:46;;;;;;;2.33;2.12;;;-1.90;1.40;;;-1.33;100.00;96689.45;647951;212;31575;-76
2022/03/21 02:19:29;;;;;;;2.70;1.80;;;-2.00;1.40;;;-1.34;100.00;96683.13;651850;216;31539;-76
2022/03/21 02:22:17;;;;;;;2.65;1.33;;;-2.00;1.40;;;-1.36;100.00;96689.89;649235;212;31533;-76
2022/03/21 02:25:19;;;;;;;2.42;2.25;;;-2.00;1.40;;;-1.43;100.00;96693.35;648550;212;32273;-76
2022/03/21 02:30:36;;;;;;;3.70;1.85;;;-2.20;1.40;;;-1.40;100.00;96693.17;644882;212;31598;-75
2022/03/21 02:35:51;;;;;;;1.60;1.50;;;-2.10;1.40;;;-1.35;100.00;96694.87;649118;216;31904;-76
2022/03/21 02:38:32;;;;;;;2.35;2.10;;;-2.10;1.40;;;-1.37;100.00;96695.25;645854;216;31566;-77
2022/03/21 02:41:15;;;;;;;1.95;1.62;;;-2.20;1.40;;;-1.69;100.00;96702.78;648767;216;31583;-76
2022/03/21 02:43:59;;;;;;;2.20;1.60;;;-2.50;1.40;;;-1.96;100.00;96702.23;653972;212;31579;-76
2022/03/21 02:46:41;;;;;;;2.80;1.70;;;-2.70;1.40;;;-2.03;100.00;96701.72;620952;226;32646;-76
2022/03/21 02:49:23;;;;;;;2.72;2.53;;;-2.90;1.40;;;-2.06;100.00;96704.10;648569;216;31600;-77
2022/03/21 02:52:05;;;;;;;1.95;1.85;;;-2.90;1.40;;;-2.04;100.00;96706.34;646296;213;42890;-76
2022/03/21 02:54:47;;;;;;;2.20;1.77;;;-3.10;1.40;;;-2.23;100.00;96701.34;646214;212;32781;-76
2022/03/21 02:57:31;;;;;;;2.10;1.90;;;-3.10;1.40;;;-2.20;100.00;96698.67;619079;222;31901;-77
2022/03/21 03:00:12;;;;;;;1.77;1.27;;;-3.10;1.40;;;-2.23;100.00;96699.81;650000;212;32111;-77
2022/03/21 03:02:57;;;;;;;5.57;1.85;;;-3.00;1.40;;;-2.12;100.00;96700.98;614228;224;32206;-76
2022/03/21 03:05:38;;;;;;;1.30;1.20;;;-2.80;1.40;;;-2.10;100.00;96709.47;649079;212;31585;-77
2022/03/21 03:08:20;;;;;;;1.07;1.00;;;-2.80;1.40;;;-2.13;100.00;96708.41;648758;216;31576;-76
2022/03/21 03:11:02;;;;;;;1.90;1.37;;;-2.90;1.40;;;-2.10;100.00;96706.19;648686;212;31600;-76
2022/03/21 03:13:45;;;;;;;1.05;1.00;;;-2.70;1.40;;;-1.95;100.00;96708.87;649196;216;31684;-77
2022/03/21 03:16:26;;;;;;;2.25;1.60;;;-2.70;1.40;;;-1.87;100.00;96708.91;645841;212;31589;-76
2022/03/21 03:19:08;;;;;;;3.30;1.58;;;-2.60;1.40;;;-2.11;100.00;96714.05;648497;216;31545;-76
2022/03/21 03:21:50;;;;;;;2.55;2.35;;;-2.80;1.40;;;-2.14;100.00;96715.37;646182;216;31507;-76
2022/03/21 03:24:32;;;;;;;2.78;1.52;;;-2.90;1.40;;;-2.17;100.00;96714.69;650745;216;31544;-76
2022/03/21 03:27:16;;;;;;;2.30;1.40;;;-2.80;1.40;;;-1.98;100.00;96721.29;647772;212;31565;-76
2022/03/21 03:36:20;;;;;;;;;;;;;;;;;;;;;
2022/03/21 03:39:02;;;;;;;2.57;2.37;;;-2.70;1.40;;;-2.22;100.00;96710.58;640386;221;25626;-75
2022/03/21 03:41:45;;;;;;;1.90;1.40;;;-2.60;1.40;;;-2.31;100.00;96724.88;649278;216;42366;-76
2022/03/21 03:44:29;;;;;;;1.25;1.15;;;-2.70;1.40;;;-2.18;100.00;96719.47;650494;212;31517;-76
2022/03/21 03:57:50;;;;;;;1.30;0.90;;;-2.50;1.40;;;-2.05;100.00;96710.83;652948;212;31654;-78
2022/03/21 04:00:31;;;;;;;3.12;1.17;;;-2.60;1.40;;;-2.14;100.00;96718.75;652247;212;32100;-77
2022/03/21 04:06:00;;;;;;;2.65;1.55;;;-2.80;1.40;;;-2.18;100.00;96717.55;652341;216;42165;-77
2022/03/21 04:08:48;;;;;;;1.40;1.30;;;-2.80;1.40;;;-2.24;100.00;96717.30;610281;226;32341;-76
2022/03/21 04:11:30;;;;;;;1.92;1.00;;;-2.80;1.40;;;-2.24;100.00;96719.40;646163;212;31537;-76
2022/03/21 04:14:12;;;;;;;4.95;1.85;;;-2.70;1.40;;;-2.15;100.00;96720.47;645610;212;42507;-75
2022/03/21 04:16:55;;;;;;;1.02;0.80;;;-2.70;1.40;;;-2.12;100.00;96717.42;648368;212;31592;-77
2022/03/21 04:19:43;;;;;;;3.95;2.45;;;-2.70;1.40;;;-2.22;100.00;96720.78;647150;212;44218;-77
2022/03/21 04:22:28;;;;;;;3.10;1.37;;;-2.90;1.40;;;-2.34;100.00;96724.53;647881;212;31591;-75
2022/03/21 04:25:16;;;;;;;1.90;1.33;;;-3.10;1.40;;;-2.30;100.00;96723.86;646336;212;31411;-77
2022/03/21 04:27:59;;;;;;;3.70;1.52;;;-3.00;1.40;;;-2.37;100.00;96721.78;621049;226;32740;-77
2022/03/21 04:30:45;;;;;;;3.75;1.33;;;-3.00;1.40;;;-2.39;100.00;96724.47;649760;216;31676;-77
2022/03/21 04:36:00;;;;;;;0.80;0.80;;;-2.90;1.40;;;-2.38;100.00;96727.25;650472;216;31576;-78
2022/03/21 04:38:45;;;;;;;2.78;1.60;;;-2.90;1.40;;;-2.38;100.00;96729.70;647427;216;31562;-76
2022/03/21 04:41:34;;;;;;;1.60;1.50;;;-2.90;1.40;;;-2.33;100.00;96733.84;649131;216;31546;-77
2022/03/21 04:44:16;;;;;;;1.50;1.20;;;-2.90;1.40;;;-2.45;100.00;96735.39;647919;216;31558;-77
2022/03/21 04:46:59;;;;;;;2.45;1.77;;;-3.00;1.40;;;-2.51;100.00;96742.10;648761;212;31716;-78
2022/03/21 04:49:55;;;;;;;1.10;0.82;;;-3.10;1.40;;;-2.43;100.00;96744.77;647981;216;31948;-77
2022/03/21 04:52:38;;;;;;;4.15;1.40;;;-3.10;1.40;;;-2.54;100.00;96743.39;653540;212;31522;-76
2022/03/21 04:55:24;;;;;;;2.35;1.35;;;-3.20;1.40;;;-2.59;100.00;96753.70;650144;216;31554;-77
2022/03/21 04:58:14;;;;;;;0.80;0.65;;;-3.40;1.40;;;-2.54;100.00;96753.67;647129;216;31582;-76
2022/03/21 05:00:56;;;;;;;1.70;1.00;;;-3.30;1.40;;;-2.69;100.00;96753.17;647495;216;31713;-76
2022/03/21 05:03:38;;;;;;;3.28;1.17;;;-3.40;1.40;;;-2.63;100.00;96756.31;648701;212;31539;-76
2022/03/21 05:06:20;;;;;;;1.40;0.82;;;-3.30;1.40;;;-2.68;100.00;96759.20;649986;216;31511;-75
2022/03/21 05:09:03;;;;;;;2.10;1.00;;;-3.30;1.40;;;-2.68;100.00;96754.90;613461;226;32029;-76
2022/03/21 05:11:43;;;;;;;2.10;1.90;;;-3.40;1.40;;;-2.70;100.00;96759.41;649492;212;31523;-76
2022/03/21 05:14:39;;;;;;;1.95;0.95;;;-3.40;1.40;;;-2.68;100.00;96764.61;655446;216;31517;-78
2022/03/21 05:17:33;;;;;;;2.00;1.00;;;-3.50;1.40;;;-2.74;100.00;96767.17;646602;212;31542;-77
2022/03/21 05:20:15;;;;;;;1.65;1.05;;;-3.50;1.40;;;-2.53;100.00;96765.24;649367;216;42176;-77
2022/03/21 05:31:38;;;;;;;1.55;1.40;;;-3.30;1.40;;;-2.43;100.00;96772.04;655811;212;31486;-78
2022/03/21 05:36:08;;;;;;;1.10;1.00;;;-3.00;1.40;;;-2.36;100.00;96781.45;650114;216;31605;-75
2022/03/21 05:38:57;;;;;;;3.95;1.08;;;-3.00;1.40;;;-2.21;100.00;96787.30;646723;216;31505;-76
2022/03/21 05:41:51;;;;;;;2.35;1.50;;;-2.90;1.40;;;-2.13;100.00;96784.77;650775;216;31531;-76
2022/03/21 05:44:47;;;;;;;2.40;1.83;;;-2.70;1.40;;;-2.14;100.00;96790.53;622457;226;32054;-76
2022/03/21 05:50:41;;;;;;;7.20;2.30;;;-2.60;1.40;;;-1.93;100.00;96788.02;619684;222;31897;-76
2022/03/21 05:53:38;;;;;;;1.50;1.40;;;-2.40;1.40;;;-1.82;100.00;96790.38;627053;225;31857;-76
2022/03/21 05:56:25;;;;;;;3.50;1.80;;;-2.40;1.40;;;-1.76;100.00;96786.52;620586;225;31905;-76
2022/03/21 06:09:49;;;;;;;1.90;1.80;;;-2.00;1.40;;;-1.20;100.00;96790.63;648993;216;31495;-76
2022/03/21 06:12:40;;;;;;;3.30;2.50;;;-1.90;1.40;;;-1.15;100.00;96799.01;644504;216;31550;-77
2022/03/21 06:15:37;;;;;;;2.53;1.40;;;-1.80;1.40;;;-0.88;100.00;96798.81;646832;216;31635;-77
2022/03/21 06:18:40;;;;;;;2.70;1.90;;;-1.70;1.40;;;-0.72;100.00;96796.51;652029;212;31620;-77
2022/03/21 06:21:29;;;;;;;1.55;1.45;;;-1.50;1.40;;;-0.54;100.00;96796.75;648002;216;31709;-77
2022/03/21 06:24:28;;;;;;;1.77;1.42;;;-1.20;1.40;;;-0.32;100.00;96803.97;650179;216;31611;-79
2022/03/21 06:27:15;;;;;;;2.97;1.55;;;-1.10;1.40;;;-0.25;100.00;96805.22;648292;216;31608;-77
2022/03/21 06:29:57;;;;;;;4.95;3.28;;;-1.00;1.40;;;-0.16;100.00;96806.97;651757;212;31993;-75
2022/03/21 06:36:00;;;;;;;3.75;2.92;;;-0.60;1.40;;;0.29;100.00;96805.72;643726;216;31617;-77
2022/03/21 06:38:42;;;;;;;3.47;2.62;;;-0.50;1.40;;;0.68;100.00;96807.86;646304;212;32142;-78
2022/03/21 06:41:23;;;;;;;4.70;2.85;;;-0.30;1.40;;;0.93;100.00;96810.06;649031;212;31667;-77
2022/03/21 06:44:21;;;;;;;4.05;3.75;;;0.00;1.40;;;1.79;100.00;96804.56;644887;215;31587;-77
2022/03/21 06:47:13;;;;;;;4.95;3.33;;;0.50;1.40;;;1.93;100.00;96808.06;616935;226;32607;-77
2022/03/21 06:50:01;;;;;;;4.05;3.47;;;0.60;1.40;;;1.75;100.00;96806.48;646337;216;42440;-77
2022/03/21 06:52:44;;;;;;;3.03;2.75;;;0.60;1.40;;;2.02;100.00;96805.25;649363;212;31665;-77
2022/03/21 06:55:34;;;;;;;3.20;2.90;;;0.70;1.40;;;2.23;99.36;96800.41;649582;216;31948;-75
2022/03/21 06:58:21;;;;;;;3.15;2.65;;;0.90;1.40;;;2.15;97.13;96804.42;649402;216;31553;-77
2022/03/21 07:01:03;;;;;;;3.67;2.87;;;0.90;1.40;;;2.26;97.15;96810.16;647895;216;42159;-78
2022/03/21 07:03:45;;;;;;;5.25;3.60;;;1.00;1.40;;;2.30;96.36;96812.27;648348;216;31588;-77
2022/03/21 07:09:13;;;;;;;4.10;3.25;;;1.40;1.40;;;2.80;95.31;96815.75;651637;216;31853;-78
2022/03/21 07:11:55;;;;;;;5.50;2.90;;;1.60;1.40;;;3.01;93.97;96816.17;647971;212;31592;-77
2022/03/21 07:14:39;;;;;;;2.90;2.58;;;1.80;1.40;;;3.75;91.59;96816.28;646838;216;31885;-79
2022/03/21 07:17:21;;;;;;;3.60;3.30;;;2.20;1.40;;;3.99;89.20;96823.11;620819;222;31871;-81
2022/03/21 07:20:11;;;;;;;3.97;3.10;;;2.30;1.40;;;4.01;88.05;96826.39;619929;226;32237;-77
2022/03/21 07:22:59;;;;;;;5.20;3.03;;;2.50;1.40;;;4.31;85.60;96827.48;647578;216;31564;-79
2022/03/21 07:25:44;;;;;;;2.72;2.53;;;2.80;1.40;;;4.56;82.85;96829.28;618338;225;31953;-80
2022/03/21 07:28:25;;;;;;;4.70;3.33;;;3.00;1.40;;;5.12;83.51;96829.63;652864;216;31566;-78
2022/03/21 07:31:11;;;;;;;6.20;3.97;;;3.40;1.40;;;5.44;81.31;96830.80;622601;226;32074;-80
2022/03/21 07:35:57;;;;;;;5.37;3.92;;;3.70;1.40;;;5.77;79.32;96839.63;652178;215;42997;-78
2022/03/21 07:38:45;;;;;;;4.72;3.28;;;3.70;1.40;;;5.73;78.42;96841.94;619859;226;31902;-79
2022/03/21 07:41:27;;;;;;;6.18;4.07;;;3.70;1.40;;;5.02;75.84;96845.91;647632;212;31594;-80
2022/03/21 07:44:08;;;;;;;4.03;3.15;;;3.50;1.40;;;5.03;78.86;96844.70;621373;223;31928;-79
2022/03/21 07:49:38;;;;;;;3.55;3.25;;;4.10;1.40;;;6.48;78.24;96844.08;621512;222;31935;-81
2022/03/21 07:52:20;;;;;;;4.95;4.37;;;4.50;1.40;;;6.35;75.90;96844.25;656834;212;31703;-80
2022/03/21 07:55:07;;;;;;;5.43;4.10;;;4.60;1.40;;;6.60;75.14;96847.61;648276;212;31590;-78
2022/03/21 07:57:51;;;;;;;6.35;4.25;;;4.60;1.40;;;6.36;74.61;96852.67;620114;222;31978;-80
2022/03/21 08:00:41;;;;;;;4.70;3.75;;;4.60;1.40;;;6.62;75.61;96850.44;619025;226;32067;-79
2022/03/21 08:03:22;;;;;;;4.25;3.85;;;4.50;1.40;;;6.50;73.93;96853.11;645208;216;42162;-77
2022/03/21 08:06:10;;;;;;;5.00;3.80;;;4.50;1.40;;;6.73;76.44;96850.59;649391;216;31553;-78
2022/03/21 08:08:57;;;;;;;6.25;3.60;;;4.80;1.40;;;7.05;73.90;96848.23;614759;226;42721;-77
2022/03/21 08:11:39;;;;;;;3.45;3.12;;;5.10;1.40;;;7.06;73.85;96849.77;618271;226;31965;-78
2022/03/21 08:14:27;;;;;;;4.87;4.30;;;5.20;1.40;;;7.16;73.47;96857.22;648340;216;31607;-80
2022/03/21 08:17:09;;;;;;;6.10;3.93;;;5.40;1.40;;;7.34;72.98;96849.02;617313;226;31922;-81
2022/03/21 08:19:50;;;;;;;3.83;3.12;;;5.50;1.40;;;7.36;70.92;96847.92;650148;212;32170;-79
2022/03/21 08:22:35;;;;;;;6.07;3.70;;;5.60;1.40;;;7.49;70.72;96858.54;642935;217;31577;-78
2022/03/21 08:25:22;;;;;;;5.20;3.37;;;5.90;1.40;;;7.84;69.98;96858.81;647329;212;32044;-79
2022/03/21 08:28:10;;;;;;;7.18;3.90;;;6.20;1.40;;;8.18;67.47;96862.34;649029;216;31598;-78
2022/03/21 08:30:52;;;;;;;4.82;3.97;;;6.30;1.40;;;8.03;66.15;96856.73;648495;212;31618;-76
2022/03/21 08:35:58;;;;;;;5.80;4.10;;;6.30;1.40;;;8.41;68.37;96850.72;644296;216;31531;-79
2022/03/21 08:38:40;;;;;;;4.18;3.78;;;6.60;1.40;;;8.17;67.57;96854.34;631978;222;32114;-79
2022/03/21 08:41:28;;;;;;;4.10;3.20;;;6.60;1.40;;;8.91;65.10;96851.78;648426;216;31616;-79
2022/03/21 08:44:12;;;;;;;5.60;3.92;;;7.10;1.40;;;9.19;65.62;96850.52;647773;212;31586;-79
2022/03/21 08:47:00;;;;;;;4.83;3.60;;;7.40;1.40;;;9.33;62.81;96851.94;648721;216;31593;-80
2022/03/21 08:49:42;;;;;;;4.12;3.72;;;7.40;1.40;;;9.59;63.83;96846.58;620186;226;31912;-80
2022/03/21 08:54:58;;;;;;;6.18;4.87;;;7.90;1.40;;;9.80;60.00;96849.83;621593;226;31889;-80
2022/03/21 08:57:40;;;;;;;6.03;3.87;;;7.90;1.40;;;9.66;60.25;96856.36;620744;226;32561;-80
2022/03/21 09:00:27;;;;;;;6.03;4.70;;;8.40;1.40;;;10.12;58.35;96858.94;646256;216;31587;-78
2022/03/21 09:03:13;;;;;;;5.43;4.87;;;9.10;1.40;;;10.11;56.67;96854.66;619379;222;32483;-78
2022/03/21 09:06:12;;;;;;;5.63;4.40;;;9.40;1.40;;;11.03;54.59;96851.01;622690;224;31958;-80
2022/03/21 09:08:57;;;;;;;5.37;4.40;;;11.00;1.40;;;13.45;51.66;96844.52;637161;212;31852;-78
2022/03/21 09:22:27;;;;;;;6.43;4.95;;;17.10;1.40;;;20.42;37.30;96829.73;629620;220;31608;-80
2022/03/21 09:25:10;;;;;;;7.10;5.35;;;17.20;1.40;;;22.06;36.69;96826.37;646539;212;31548;-77
2022/03/21 09:28:11;;;;;;;6.63;4.80;;;18.20;1.40;;;21.74;33.26;96827.25;648226;216;31538;-79
2022/03/21 09:30:59;;;;;;;6.75;5.07;;;17.30;1.40;;;20.76;34.84;96827.23;619424;226;31974;-78
2022/03/21 09:35:53;;;;;;;5.93;5.10;;;18.60;1.40;;;22.76;32.19;96819.14;647543;216;31759;-78
2022/03/21 09:38:42;;;;;;;6.47;5.20;;;19.60;1.40;;;23.87;27.99;96822.98;642886;215;31667;-78
2022/03/21 09:41:27;;;;;;;7.80;5.70;;;18.30;1.40;;;24.32;32.98;96823.36;618805;226;32749;-78
2022/03/21 09:44:10;;;;;;;10.32;5.37;;;19.00;1.40;;;18.73;31.19;96832.38;646996;216;31583;-78
2022/03/21 09:46:53;;;;;;;7.25;5.60;;;16.20;1.40;;;20.09;33.69;96829.34;646258;212;32106;-77
2022/03/21 09:49:34;;;;;;;6.03;5.28;;;17.60;1.40;;;22.49;31.49;96816.70;620389;226;31902;-78
2022/03/21 09:52:16;;;;;;;7.57;5.18;;;18.30;1.40;;;23.30;28.33;96817.09;619240;222;42567;-78
2022/03/21 09:54:58;;;;;;;7.05;5.70;;;19.40;1.40;;;25.26;26.84;96815.70;621637;226;31883;-78
2022/03/21 09:57:44;;;;;;;5.50;5.00;;;19.60;1.40;;;21.46;27.11;96821.25;619378;226;31931;-77
2022/03/21 10:00:26;;;;;;;5.28;4.75;;;18.50;1.40;;;22.90;30.72;96813.27;646917;216;31568;-77
2022/03/21 10:03:08;;;;;;;5.65;4.97;;;18.70;1.40;;;21.74;27.82;96819.84;646977;212;31610;-77
2022/03/21 10:05:50;;;;;;;6.40;5.70;;;18.60;1.40;;;25.01;26.85;96809.47;646976;216;31624;-77
2022/03/21 10:08:31;;;;;;;6.20;5.60;;;19.80;1.40;;;25.53;27.04;96803.39;619363;226;32502;-77
2022/03/21 10:11:13;;;;;;;5.62;5.03;;;20.60;1.40;;;25.98;23.64;96801.63;648429;216;31686;-77
2022/03/21 10:13:56;;;;;;;7.60;5.60;;;21.30;1.40;;;27.77;24.11;96795.56;647406;212;31737;-77
2022/03/21 10:16:52;;;;;;;6.22;5.22;;;20.60;99.90;;;26.60;24.30;96798.76;647694;212;31641;-77
2022/03/21 10:19:46;;;;;;;6.12;5.22;;;20.00;99.90;;;24.30;23.53;96802.44;647001;212;31781;-77
2022/03/21 10:22:37;;;;;;;5.62;5.05;;;20.40;1.40;;;25.01;23.21;96794.64;646541;216;31593;-77
2022/03/21 10:25:20;;;;;;;6.15;5.57;;;20.50;99.90;;;25.74;23.05;96798.38;647475;216;42371;-77
2022/03/21 10:28:03;;;;;;;6.62;5.57;;;21.00;99.90;;;24.31;26.93;96795.25;647174;216;32088;-77
2022/03/21 10:30:45;;;;;;;5.95;5.35;;;20.20;99.90;;;26.19;25.97;96797.03;646978;216;31568;-77
2022/03/21 10:35:50;;;;;;;5.37;4.85;;;22.20;99.90;;;29.69;21.93;96784.70;647141;212;31738;-77
2022/03/21 10:38:33;;;;;;;5.90;4.90;;;21.80;1.40;;;29.48;20.90;96782.39;646353;216;31566;-77
2022/03/21 10:41:21;;;;;;;5.82;5.03;;;20.90;99.90;;;27.99;22.66;96784.81;616448;224;43769;-75
2022/03/21 10:44:10;;;;;;;6.07;5.30;;;20.70;99.90;;;28.39;22.42;96783.97;647855;216;31574;-77
2022/03/21 10:46:52;;;;;;;6.32;5.20;;;22.20;99.90;;;21.81;25.19;96799.39;620213;226;32170;-77
2022/03/21 10:49:38;;;;;;;5.47;4.97;;;19.10;1.40;;;22.87;27.43;96788.28;647917;216;31526;-77
2022/03/21 10:52:26;;;;;;;6.40;5.80;;;20.20;99.90;;;28.01;22.67;96782.89;619400;222;42574;-77
2022/03/21 10:58:03;;;;;;;8.35;5.53;;;22.40;99.90;;;25.62;25.09;96782.84;650368;213;31570;-78
2022/03/21 11:00:54;;;;;;;5.90;5.30;;;21.80;99.90;;;23.64;24.09;96781.52;646643;216;31790;-77
2022/03/21 11:03:41;;;;;;;6.87;5.90;;;20.40;99.90;;;26.54;23.35;96776.99;646529;216;31757;-77
2022/03/21 11:06:21;;;;;;;6.20;4.93;;;21.10;99.90;;;24.36;23.30;96777.66;617982;226;32302;-78
2022/03/21 11:09:02;;;;;;;7.20;5.23;;;20.00;1.40;;;26.26;23.55;96769.18;652083;216;22473;-77
2022/03/21 11:11:44;;;;;;;6.15;5.53;;;20.70;99.90;;;22.20;26.12;96774.21;647171;216;31877;-77
2022/03/21 11:14:26;;;;;;;6.18;5.50;;;19.40;1.40;;;27.77;22.95;96763.36;646853;216;31624;-78
2022/03/21 11:17:08;;;;;;;6.37;5.78;;;21.50;1.40;;;23.61;23.69;96769.14;646118;216;31662;-77
2022/03/21 11:19:51;;;;;;;6.87;6.28;;;20.70;99.90;;;22.70;24.28;96773.27;647950;216;31573;-77
2022/03/21 11:22:37;;;;;;;6.60;5.70;;;19.90;99.90;;;26.56;22.73;96759.36;645242;216;31550;-77
2022/03/21 11:25:19;;;;;;;6.72;5.95;;;21.50;1.40;;;29.87;20.94;96760.69;646854;212;31571;-76
2022/03/21 11:28:32;;;;;;;5.90;5.30;;;22.30;1.40;;;30.04;20.54;96758.28;646584;216;31566;-77
2022/03/21 11:31:23;;;;;;;6.37;5.70;;;22.20;99.90;;;29.50;20.76;96753.77;646585;212;31594;-77
2022/03/21 11:36:01;;;;;;;6.78;6.07;;;23.80;99.90;;;24.53;23.55;96753.57;618257;226;31898;-75
2022/03/21 11:38:48;;;;;;;6.10;5.22;;;20.20;99.90;;;25.46;24.97;96754.02;647681;216;31794;-77
2022/03/21 11:41:37;;;;;;;6.53;5.62;;;21.50;99.90;;;27.70;21.79;96745.95;646690;212;31535;-77
2022/03/21 11:44:19;;;;;;;5.90;5.30;;;21.70;99.90;;;28.65;21.40;96739.25;631875;222;31879;-78
2022/03/21 11:47:28;;;;;;;7.35;6.20;;;23.00;99.90;;;30.64;20.48;96735.31;648285;216;31614;-77
2022/03/21 11:50:11;;;;;;;6.60;5.50;;;22.20;99.90;;;28.51;21.19;96735.55;645623;216;31655;-76
2022/03/21 11:53:07;;;;;;;5.93;5.32;;;22.90;99.90;;;28.40;21.50;96729.27;646410;212;31819;-78
2022/03/21 11:55:47;;;;;;;7.37;5.78;;;22.80;99.90;;;31.18;19.24;96720.13;648151;212;31758;-78
2022/03/21 11:58:52;;;;;;;6.28;5.10;;;23.10;99.90;;;25.47;21.44;96735.06;647058;216;32115;-75
2022/03/21 12:01:37;;;;;;;5.75;5.15;;;20.70;99.90;;;25.24;23.26;96729.03;646273;212;31548;-78
2022/03/21 12:04:32;;;;;;;6.30;5.70;;;20.90;99.90;;;30.14;20.38;96712.70;642825;217;42199;-78
2022/03/21 12:07:30;;;;;;;6.18;5.65;;;23.30;99.90;;;30.48;20.09;96715.63;646677;212;31567;-77
2022/03/21 12:10:12;;;;;;;6.57;5.87;;;23.60;99.90;;;25.34;21.40;96726.72;618938;225;33033;-75
2022/03/21 12:12:56;;;;;;;6.72;6.03;;;21.00;1.40;;;24.20;23.63;96719.00;646471;216;42162;-78
2022/03/21 12:15:39;;;;;;;6.78;6.07;;;20.90;99.90;;;26.50;21.13;96709.05;646877;216;42182;-77
2022/03/21 12:19:00;;;;;;;6.25;5.65;;;22.30;99.90;;;30.35;19.88;96702.20;619152;226;31899;-78
2022/03/21 12:21:50;;;;;;;5.65;5.05;;;23.40;99.90;;;31.10;18.20;96697.70;646434;216;31783;-74
2022/03/21 12:24:32;;;;;;;6.18;5.57;;;23.60;99.90;;;27.31;19.54;96704.58;645907;212;32338;-74
2022/03/21 12:27:16;;;;;;;7.15;6.43;;;21.00;99.90;;;24.01;22.61;96705.14;619531;226;31961;-77
2022/03/21 12:30:35;;;;;;;6.25;5.30;;;19.90;99.90;;;28.56;20.33;96694.17;647990;216;31682;-76
2022/03/21 12:35:54;;;;;;;6.45;5.85;;;23.10;99.90;;;31.35;18.69;96687.18;646659;216;31582;-75
2022/03/21 12:38:39;;;;;;;5.72;5.22;;;23.70;99.90;;;30.93;18.47;96681.27;647691;216;31650;-77
2022/03/21 12:41:20;;;;;;;6.22;5.57;;;23.50;99.90;;;27.31;20.34;96690.75;646268;212;32163;-77
2022/03/21 12:44:04;;;;;;;6.22;5.60;;;22.40;99.90;;;31.63;18.51;96680.36;645961;216;31615;-75
2022/03/21 12:46:48;;;;;;;5.85;5.20;;;24.30;99.90;;;32.97;17.57;96674.06;619050;222;31999;-77
2022/03/21 12:51:28;;;;;;;7.12;5.80;;;23.20;99.90;;;25.02;21.06;96693.72;647432;216;31583;-77
2022/03/21 12:54:10;;;;;;;5.80;5.20;;;20.70;99.90;;;29.01;19.77;96679.31;646589;212;31548;-78
2022/03/21 12:57:04;;;;;;;9.05;6.80;;;21.80;99.90;;;29.83;18.37;96675.36;645477;216;31732;-77
2022/03/21 12:59:51;;;;;;;7.07;6.20;;;22.50;99.90;;;32.06;18.07;96666.86;620212;226;33136;-78
2022/03/21 13:02:39;;;;;;;9.35;5.93;;;24.10;99.90;;;29.42;19.33;96674.95;645586;216;31526;-76
2022/03/21 13:13:53;;;;;;;6.68;5.43;;;23.00;99.90;;;31.13;17.68;96660.79;646898;212;31584;-78
2022/03/21 13:16:35;;;;;;;8.45;5.70;;;23.40;99.90;;;31.29;17.47;96663.92;619875;226;31908;-78
2022/03/21 13:19:22;;;;;;;6.20;5.60;;;23.70;99.90;;;31.21;17.26;96659.02;642146;216;32816;-75
2022/03/21 13:22:06;;;;;;;8.75;5.82;;;23.40;99.90;;;31.17;17.60;96660.53;647834;216;31626;-75
2022/03/21 13:24:53;;;;;;;8.48;5.85;;;23.90;99.90;;;30.44;17.78;96658.48;619531;222;43200;-78